Time;durP1;ratioP1;P1;durP2;ratioP2;P2;SDS_P1;SDS_P2;PMS_P1;PMS_P2;Temp;Humidity;BMP_temperature;BMP_pressure;BME280_temperature;BME280_humidity;BME280_pressure;Samples;Min_cycle;Max_cycle;Signal;HPM_P1;HPM_P2
2023/01/21 00:00:56;;;;;;;5.38;2.47;;;;;;;;;;5068841;28;20365;-49
2023/01/21 00:03:22;;;;;;;4.15;2.47;;;;;;;;;;5069643;28;20024;-47
2023/01/21 00:05:48;;;;;;;4.28;2.60;;;;;;;;;;5066857;28;20048;-49
2023/01/21 00:08:14;;;;;;;4.80;2.40;;;;;;;;;;5068911;28;20040;-48
2023/01/21 00:10:40;;;;;;;4.25;2.70;;;;;;;;;;5059675;28;20158;-46
2023/01/21 00:13:06;;;;;;;4.22;2.55;;;;;;;;;;5066858;28;20027;-46
2023/01/21 00:15:32;;;;;;;5.55;2.80;;;;;;;;;;5065155;28;20032;-47
2023/01/21 00:17:58;;;;;;;3.53;2.22;;;;;;;;;;5068693;28;20016;-45
2023/01/21 00:20:24;;;;;;;4.53;2.30;;;;;;;;;;5065365;28;20047;-47
2023/01/21 00:22:52;;;;;;;4.57;2.80;;;;;;;;;;5067269;28;20502;-51
2023/01/21 00:25:19;;;;;;;4.28;2.35;;;;;;;;;;5068076;28;20036;-46
2023/01/21 00:27:44;;;;;;;3.22;2.10;;;;;;;;;;5061387;28;20031;-50
2023/01/21 00:30:11;;;;;;;4.72;2.72;;;;;;;;;;5065499;28;20470;-50
2023/01/21 00:32:37;;;;;;;4.25;2.30;;;;;;;;;;5068519;28;20103;-46
2023/01/21 00:35:03;;;;;;;5.15;2.67;;;;;;;;;;5067434;28;20035;-46
2023/01/21 00:37:29;;;;;;;5.18;2.70;;;;;;;;;;5068577;28;20150;-49
2023/01/21 00:39:55;;;;;;;3.33;2.40;;;;;;;;;;5065322;28;20151;-46
2023/01/21 00:42:21;;;;;;;5.45;2.47;;;;;;;;;;5067514;28;20096;-48
2023/01/21 00:44:47;;;;;;;4.20;2.40;;;;;;;;;;5063795;28;20047;-48
2023/01/21 00:47:13;;;;;;;4.45;2.50;;;;;;;;;;5066586;28;20095;-48
2023/01/21 00:49:39;;;;;;;4.72;2.80;;;;;;;;;;5065820;28;20492;-46
2023/01/21 00:52:05;;;;;;;5.03;2.60;;;;;;;;;;5067380;28;20104;-46
2023/01/21 00:54:31;;;;;;;3.72;2.35;;;;;;;;;;5066207;28;20038;-47
2023/01/21 00:56:57;;;;;;;4.28;2.45;;;;;;;;;;5067683;28;20485;-46
2023/01/21 00:59:26;;;;;;;4.43;2.25;;;;;;;;;;5061209;28;20033;-47
2023/01/21 01:01:51;;;;;;;5.10;2.80;;;;;;;;;;5065896;28;20031;-46
2023/01/21 01:04:17;;;;;;;4.45;2.50;;;;;;;;;;5064981;28;20049;-45
2023/01/21 01:06:43;;;;;;;4.15;2.47;;;;;;;;;;5067638;28;20036;-47
2023/01/21 01:09:11;;;;;;;4.15;2.45;;;;;;;;;;5067847;28;20024;-47
2023/01/21 01:11:38;;;;;;;6.05;2.78;;;;;;;;;;5064492;28;20025;-46
2023/01/21 01:14:04;;;;;;;4.03;2.25;;;;;;;;;;5067682;28;20107;-46
2023/01/21 01:16:30;;;;;;;4.65;2.13;;;;;;;;;;5063961;28;20842;-47
2023/01/21 01:18:56;;;;;;;2.97;2.08;;;;;;;;;;5065292;28;20052;-45
2023/01/21 01:21:22;;;;;;;4.10;2.58;;;;;;;;;;5066195;28;20017;-47
2023/01/21 01:23:50;;;;;;;5.35;2.63;;;;;;;;;;5068081;28;20024;-46
2023/01/21 01:26:17;;;;;;;3.63;2.10;;;;;;;;;;5065404;28;20040;-46
2023/01/21 01:28:43;;;;;;;4.13;2.65;;;;;;;;;;5064905;28;20798;-45
2023/01/21 01:31:11;;;;;;;3.83;2.22;;;;;;;;;;5066770;28;20075;-46
2023/01/21 01:33:37;;;;;;;3.90;2.33;;;;;;;;;;5061342;28;20058;-46
2023/01/21 01:36:05;;;;;;;4.55;2.40;;;;;;;;;;5064779;28;20024;-46
2023/01/21 01:38:31;;;;;;;3.65;2.33;;;;;;;;;;5061960;28;20032;-46
2023/01/21 01:40:57;;;;;;;3.88;2.58;;;;;;;;;;5068464;28;20096;-45
2023/01/21 01:43:27;;;;;;;4.10;2.80;;;;;;;;;;5061368;28;20103;-46
2023/01/21 01:45:54;;;;;;;3.47;2.40;;;;;;;;;;5070718;28;20051;-46
2023/01/21 01:48:23;;;;;;;3.30;2.05;;;;;;;;;;5063147;28;20374;-47
2023/01/21 01:50:49;;;;;;;3.50;2.10;;;;;;;;;;5068258;28;20052;-45
2023/01/21 01:53:16;;;;;;;3.00;1.98;;;;;;;;;;5060572;28;20549;-45
2023/01/21 01:55:42;;;;;;;3.53;2.58;;;;;;;;;;5065017;28;20566;-46
2023/01/21 01:58:10;;;;;;;3.80;2.38;;;;;;;;;;5067247;28;20024;-46
2023/01/21 02:00:36;;;;;;;3.42;2.22;;;;;;;;;;5065905;28;20021;-45
2023/01/21 02:05:47;;;;;;;8.18;2.97;;;;;;;;;;5068619;28;20074;-46
2023/01/21 02:08:13;;;;;;;2.85;2.10;;;;;;;;;;5069304;28;20431;-46
2023/01/21 02:10:39;;;;;;;3.97;2.75;;;;;;;;;;5067381;28;20025;-45
2023/01/21 02:13:05;;;;;;;4.55;2.65;;;;;;;;;;5059063;28;20025;-47
2023/01/21 02:15:50;;;;;;;4.65;2.78;;;;;;;;;;5057915;28;20389;-48
2023/01/21 02:18:25;;;;;;;3.00;2.35;;;;;;;;;;5068805;28;20108;-48
2023/01/21 02:20:57;;;;;;;2.97;1.88;;;;;;;;;;5057884;28;20036;-51
2023/01/21 02:23:42;;;;;;;3.42;2.25;;;;;;;;;;5061478;28;20020;-46
2023/01/21 02:26:17;;;;;;;2.95;2.08;;;;;;;;;;5069493;28;20032;-49
2023/01/21 02:28:52;;;;;;;3.83;2.30;;;;;;;;;;5061675;28;20033;-46
2023/01/21 02:31:18;;;;;;;4.40;2.13;;;;;;;;;;5071230;28;20063;-46
2023/01/21 02:33:49;;;;;;;4.00;2.38;;;;;;;;;;5064371;28;20084;-45
2023/01/21 02:36:26;;;;;;;3.50;2.20;;;;;;;;;;5069574;28;20032;-47
2023/01/21 02:39:02;;;;;;;3.13;2.20;;;;;;;;;;5068875;28;20028;-45
2023/01/21 02:41:33;;;;;;;4.05;2.10;;;;;;;;;;5061513;28;20041;-46
2023/01/21 02:44:12;;;;;;;2.78;2.10;;;;;;;;;;5065053;28;20373;-49
2023/01/21 02:46:46;;;;;;;3.85;2.15;;;;;;;;;;5063133;28;21619;-47
2023/01/21 02:49:19;;;;;;;4.30;2.28;;;;;;;;;;5073198;28;20017;-46
2023/01/21 02:51:45;;;;;;;7.82;3.03;;;;;;;;;;5072666;28;20059;-45
2023/01/21 02:54:35;;;;;;;3.72;2.45;;;;;;;;;;5071040;28;20462;-46
2023/01/21 02:57:01;;;;;;;2.83;1.95;;;;;;;;;;5044957;28;20037;-46
2023/01/21 02:59:27;;;;;;;3.05;1.85;;;;;;;;;;5070596;28;20116;-45
2023/01/21 03:02:12;;;;;;;3.30;2.05;;;;;;;;;;5069088;28;22981;-46
2023/01/21 03:04:56;;;;;;;2.70;1.85;;;;;;;;;;5064556;28;20045;-45
2023/01/21 03:07:29;;;;;;;3.03;1.80;;;;;;;;;;5058355;28;20104;-46
2023/01/21 03:09:59;;;;;;;3.33;2.50;;;;;;;;;;5072728;28;20024;-46
2023/01/21 03:12:30;;;;;;;3.15;2.20;;;;;;;;;;5061913;28;20424;-46
2023/01/21 03:17:47;;;;;;;5.07;2.42;;;;;;;;;;5060781;28;20063;-45
2023/01/21 03:20:13;;;;;;;2.65;1.98;;;;;;;;;;5066484;28;20481;-46
2023/01/21 03:22:39;;;;;;;2.40;1.73;;;;;;;;;;5068043;28;20056;-45
2023/01/21 03:25:06;;;;;;;3.08;1.95;;;;;;;;;;5054960;28;20043;-45
2023/01/21 03:27:33;;;;;;;2.72;1.98;;;;;;;;;;5071035;28;20036;-46
2023/01/21 03:30:02;;;;;;;3.20;2.00;;;;;;;;;;5066327;28;20082;-46
2023/01/21 03:32:29;;;;;;;3.17;1.80;;;;;;;;;;5057870;28;20033;-45
2023/01/21 03:34:55;;;;;;;2.63;1.73;;;;;;;;;;5058127;28;20086;-46
2023/01/21 03:37:27;;;;;;;4.40;2.47;;;;;;;;;;5054331;28;20468;-46
2023/01/21 03:39:56;;;;;;;3.75;1.90;;;;;;;;;;5068359;28;20488;-45
2023/01/21 03:42:23;;;;;;;2.85;2.15;;;;;;;;;;5062187;28;20378;-46
2023/01/21 03:44:49;;;;;;;3.28;1.90;;;;;;;;;;5068355;28;20020;-46
2023/01/21 03:47:28;;;;;;;2.78;1.90;;;;;;;;;;5063932;28;20040;-45
2023/01/21 03:50:03;;;;;;;3.50;1.90;;;;;;;;;;5069402;28;20028;-45
2023/01/21 03:52:29;;;;;;;3.03;1.80;;;;;;;;;;5068310;28;20039;-46
2023/01/21 03:54:55;;;;;;;2.70;1.80;;;;;;;;;;5066460;28;20373;-46
2023/01/21 03:57:21;;;;;;;3.13;2.40;;;;;;;;;;5065320;28;20074;-48
2023/01/21 03:59:47;;;;;;;2.63;1.83;;;;;;;;;;5070043;28;20469;-46
2023/01/21 04:02:18;;;;;;;2.28;1.50;;;;;;;;;;5069797;28;20112;-47
2023/01/21 04:04:44;;;;;;;3.13;1.70;;;;;;;;;;5054673;28;20048;-46
2023/01/21 04:07:10;;;;;;;3.50;1.73;;;;;;;;;;5072050;28;20025;-46
2023/01/21 04:09:36;;;;;;;3.97;1.90;;;;;;;;;;5066473;28;20534;-45
2023/01/21 04:12:03;;;;;;;2.05;1.58;;;;;;;;;;5055311;28;20104;-46
2023/01/21 04:14:29;;;;;;;1.77;1.35;;;;;;;;;;5067277;28;20027;-47
2023/01/21 04:16:55;;;;;;;2.60;1.75;;;;;;;;;;5063649;28;20024;-45
2023/01/21 04:19:21;;;;;;;2.30;1.60;;;;;;;;;;5067045;28;20025;-46
2023/01/21 04:21:47;;;;;;;2.70;1.70;;;;;;;;;;5048263;28;20481;-47
2023/01/21 04:24:13;;;;;;;2.60;1.60;;;;;;;;;;5070124;28;20062;-45
2023/01/21 04:26:39;;;;;;;2.25;1.50;;;;;;;;;;5066944;28;20036;-46
2023/01/21 04:29:05;;;;;;;4.40;1.92;;;;;;;;;;5066978;28;20033;-45
2023/01/21 04:31:30;;;;;;;1.90;1.50;;;;;;;;;;5070194;28;20039;-48
2023/01/21 04:33:56;;;;;;;1.83;1.23;;;;;;;;;;5069590;28;20024;-49
2023/01/21 04:36:22;;;;;;;2.85;1.60;;;;;;;;;;5069516;28;20028;-45
2023/01/21 04:38:48;;;;;;;2.47;1.52;;;;;;;;;;5070667;28;20024;-44
2023/01/21 04:41:14;;;;;;;2.47;1.60;;;;;;;;;;5063192;28;20039;-48
2023/01/21 04:43:40;;;;;;;2.20;1.52;;;;;;;;;;5064423;28;20211;-47
2023/01/21 04:46:06;;;;;;;2.47;1.70;;;;;;;;;;5064554;28;20024;-45
2023/01/21 04:48:32;;;;;;;3.90;2.38;;;;;;;;;;5070131;28;20035;-48
2023/01/21 04:50:58;;;;;;;2.25;1.63;;;;;;;;;;5070569;28;20397;-49
2023/01/21 04:53:24;;;;;;;2.67;1.70;;;;;;;;;;5068888;28;20039;-48
2023/01/21 04:55:51;;;;;;;3.30;1.70;;;;;;;;;;5057809;28;20111;-47
2023/01/21 04:58:17;;;;;;;1.88;1.25;;;;;;;;;;5070685;28;20017;-45
2023/01/21 05:00:43;;;;;;;1.80;1.30;;;;;;;;;;5054038;28;20063;-44
2023/01/21 05:03:09;;;;;;;3.15;1.77;;;;;;;;;;5068648;28;20412;-47
2023/01/21 05:05:35;;;;;;;2.47;1.58;;;;;;;;;;5063991;28;20084;-46
2023/01/21 05:08:01;;;;;;;2.08;1.60;;;;;;;;;;5060759;28;20025;-44
2023/01/21 05:10:27;;;;;;;3.15;1.70;;;;;;;;;;5068042;28;20108;-46
2023/01/21 05:12:53;;;;;;;1.90;1.38;;;;;;;;;;5068919;28;20025;-47
2023/01/21 05:15:19;;;;;;;2.20;1.40;;;;;;;;;;5064684;28;20033;-46
2023/01/21 05:17:45;;;;;;;2.25;1.52;;;;;;;;;;5065200;28;20028;-48
2023/01/21 05:20:11;;;;;;;2.33;1.40;;;;;;;;;;5061399;28;20063;-47
2023/01/21 05:22:38;;;;;;;2.95;1.60;;;;;;;;;;5067664;28;20465;-44
2023/01/21 05:25:04;;;;;;;2.58;1.80;;;;;;;;;;5063740;28;20036;-48
2023/01/21 05:27:30;;;;;;;2.03;1.50;;;;;;;;;;5068484;28;20048;-44
2023/01/21 05:29:56;;;;;;;1.98;1.52;;;;;;;;;;5060029;28;20060;-44
2023/01/21 05:32:22;;;;;;;2.60;1.55;;;;;;;;;;5066411;28;20466;-44
2023/01/21 05:34:48;;;;;;;2.13;1.40;;;;;;;;;;5065802;28;20025;-45
2023/01/21 05:37:14;;;;;;;1.60;1.35;;;;;;;;;;5065659;28;20025;-44
2023/01/21 05:39:40;;;;;;;2.15;1.40;;;;;;;;;;5059178;28;20199;-45
2023/01/21 05:42:06;;;;;;;2.78;1.75;;;;;;;;;;5066225;28;20104;-44
2023/01/21 05:44:32;;;;;;;2.25;1.77;;;;;;;;;;5059403;28;20096;-45
2023/01/21 05:46:58;;;;;;;3.58;1.83;;;;;;;;;;5056949;28;20036;-44
2023/01/21 05:49:24;;;;;;;1.73;1.50;;;;;;;;;;5073756;28;20021;-46
2023/01/21 05:51:50;;;;;;;2.45;1.40;;;;;;;;;;5060223;28;20021;-48
2023/01/21 05:54:16;;;;;;;1.77;1.40;;;;;;;;;;5060917;28;20381;-45
2023/01/21 05:56:42;;;;;;;1.50;1.17;;;;;;;;;;5050434;28;20021;-44
2023/01/21 05:59:08;;;;;;;1.90;1.40;;;;;;;;;;5070246;28;20060;-45
2023/01/21 06:01:34;;;;;;;2.75;1.70;;;;;;;;;;5069550;28;20032;-44
2023/01/21 06:04:00;;;;;;;2.03;1.67;;;;;;;;;;5063730;28;20048;-45
2023/01/21 06:06:26;;;;;;;2.13;1.48;;;;;;;;;;5072201;28;20029;-48
2023/01/21 06:08:52;;;;;;;2.78;2.03;;;;;;;;;;5056406;28;20381;-44
2023/01/21 06:11:18;;;;;;;2.33;1.80;;;;;;;;;;5071957;28;20059;-44
2023/01/21 06:13:44;;;;;;;2.53;1.45;;;;;;;;;;5071423;28;20039;-46
2023/01/21 06:16:10;;;;;;;2.13;1.50;;;;;;;;;;5071810;28;20469;-45
2023/01/21 06:18:36;;;;;;;2.10;1.60;;;;;;;;;;5072764;28;20086;-47
2023/01/21 06:21:02;;;;;;;2.67;1.77;;;;;;;;;;5073893;28;20452;-44
2023/01/21 06:23:28;;;;;;;2.58;1.90;;;;;;;;;;5071855;28;20117;-46
2023/01/21 06:25:58;;;;;;;4.60;1.73;;;;;;;;;;5067754;28;20036;-48
2023/01/21 06:28:24;;;;;;;5.18;2.10;;;;;;;;;;5064716;28;20044;-45
2023/01/21 06:30:50;;;;;;;9.15;2.30;;;;;;;;;;5067536;28;20025;-46
2023/01/21 06:33:16;;;;;;;11.90;2.40;;;;;;;;;;5064338;28;20053;-49
2023/01/21 06:35:42;;;;;;;6.07;2.05;;;;;;;;;;5068839;28;20036;-45
2023/01/21 06:38:08;;;;;;;8.50;2.17;;;;;;;;;;5072977;28;20071;-45
2023/01/21 06:40:34;;;;;;;7.63;2.00;;;;;;;;;;5072337;28;20056;-45
2023/01/21 06:43:00;;;;;;;9.88;2.25;;;;;;;;;;5066536;28;20424;-46
2023/01/21 06:45:27;;;;;;;8.13;1.67;;;;;;;;;;5066274;28;20085;-46
2023/01/21 06:47:53;;;;;;;3.55;1.85;;;;;;;;;;5073354;28;20481;-44
2023/01/21 06:50:19;;;;;;;6.15;2.22;;;;;;;;;;5066371;28;20035;-44
2023/01/21 06:52:45;;;;;;;8.05;2.25;;;;;;;;;;5071443;28;20493;-49
2023/01/21 06:55:12;;;;;;;10.00;3.05;;;;;;;;;;5069999;28;20116;-46
2023/01/21 06:57:38;;;;;;;4.03;1.67;;;;;;;;;;5072489;28;20036;-46
2023/01/21 07:00:04;;;;;;;5.63;1.75;;;;;;;;;;5071736;28;20037;-47
2023/01/21 07:02:30;;;;;;;5.25;1.98;;;;;;;;;;5069703;28;20028;-46
2023/01/21 07:04:56;;;;;;;6.80;3.25;;;;;;;;;;5065271;28;20400;-46
2023/01/21 07:07:22;;;;;;;5.00;1.88;;;;;;;;;;5061645;28;20151;-44
2023/01/21 07:09:48;;;;;;;4.28;2.15;;;;;;;;;;5077113;28;20374;-46
2023/01/21 07:12:14;;;;;;;6.72;2.22;;;;;;;;;;5072622;28;20035;-45
2023/01/21 07:14:40;;;;;;;4.95;2.25;;;;;;;;;;5065873;28;20030;-46
2023/01/21 07:17:06;;;;;;;4.88;2.10;;;;;;;;;;5072973;28;20154;-48
2023/01/21 07:19:32;;;;;;;6.32;2.58;;;;;;;;;;5068614;28;20078;-47
2023/01/21 07:21:58;;;;;;;11.32;2.60;;;;;;;;;;5068208;28;20025;-48
2023/01/21 07:24:24;;;;;;;2.75;1.95;;;;;;;;;;5057536;28;20035;-47
2023/01/21 07:26:50;;;;;;;6.15;2.10;;;;;;;;;;5067920;28;20079;-47
2023/01/21 07:29:16;;;;;;;8.98;5.97;;;;;;;;;;5065594;28;20381;-46
2023/01/21 07:31:42;;;;;;;9.90;6.45;;;;;;;;;;5068419;28;20254;-45
2023/01/21 07:34:08;;;;;;;10.68;7.28;;;;;;;;;;5063647;28;20031;-47
2023/01/21 07:36:34;;;;;;;9.52;6.03;;;;;;;;;;5071833;28;20465;-40
2023/01/21 07:39:00;;;;;;;8.05;4.78;;;;;;;;;;5070184;28;20051;-40
2023/01/21 07:41:26;;;;;;;7.25;4.28;;;;;;;;;;5065064;28;20099;-40
2023/01/21 07:43:52;;;;;;;7.18;4.18;;;;;;;;;;5070450;28;20106;-40
2023/01/21 07:46:19;;;;;;;5.80;3.28;;;;;;;;;;5070681;28;20070;-40
2023/01/21 07:48:49;;;;;;;4.72;3.35;;;;;;;;;;5064280;28;20105;-40
2023/01/21 07:51:15;;;;;;;4.30;3.33;;;;;;;;;;5070278;28;20028;-40
2023/01/21 07:53:41;;;;;;;4.82;2.85;;;;;;;;;;5071097;28;20085;-40
2023/01/21 07:56:09;;;;;;;4.80;2.72;;;;;;;;;;5072049;28;20035;-40
2023/01/21 07:58:35;;;;;;;3.83;2.65;;;;;;;;;;5062537;28;20040;-40
2023/01/21 08:01:04;;;;;;;4.82;3.05;;;;;;;;;;5052812;28;20377;-40
2023/01/21 08:03:30;;;;;;;4.53;2.53;;;;;;;;;;5063396;28;20029;-39
2023/01/21 08:05:56;;;;;;;6.90;2.63;;;;;;;;;;5065929;28;20031;-40
2023/01/21 08:08:22;;;;;;;3.65;2.47;;;;;;;;;;5069906;28;20493;-41
2023/01/21 08:10:54;;;;;;;2.72;2.03;;;;;;;;;;5066446;28;20032;-41
2023/01/21 08:13:21;;;;;;;4.00;2.15;;;;;;;;;;5069680;28;20025;-41
2023/01/21 08:15:50;;;;;;;4.85;2.50;;;;;;;;;;5062834;28;20340;-40
2023/01/21 08:18:17;;;;;;;6.93;2.40;;;;;;;;;;5058380;28;20024;-41
2023/01/21 08:20:43;;;;;;;3.92;2.30;;;;;;;;;;5058586;28;20171;-40
2023/01/21 08:23:08;;;;;;;4.72;2.40;;;;;;;;;;5068447;28;20461;-40
2023/01/21 08:25:34;;;;;;;4.00;2.25;;;;;;;;;;5046014;28;20155;-40
2023/01/21 08:28:00;;;;;;;3.10;2.05;;;;;;;;;;5063305;28;20055;-40
2023/01/21 08:30:26;;;;;;;4.85;2.03;;;;;;;;;;5060940;28;20035;-40
2023/01/21 08:32:52;;;;;;;3.85;2.65;;;;;;;;;;5069365;28;20039;-40
2023/01/21 08:35:18;;;;;;;3.10;2.28;;;;;;;;;;5061498;28;20032;-40
2023/01/21 08:37:44;;;;;;;3.13;2.53;;;;;;;;;;5068056;28;20040;-40
2023/01/21 08:40:11;;;;;;;2.88;2.53;;;;;;;;;;5066944;28;20496;-40
2023/01/21 08:42:37;;;;;;;3.63;1.80;;;;;;;;;;5067305;28;20037;-42
2023/01/21 08:45:03;;;;;;;2.72;2.05;;;;;;;;;;5068330;28;20028;-41
2023/01/21 08:47:29;;;;;;;4.53;2.00;;;;;;;;;;5062320;28;20089;-39
2023/01/21 08:49:55;;;;;;;4.15;2.20;;;;;;;;;;5069606;28;20024;-41
2023/01/21 08:52:21;;;;;;;4.55;2.35;;;;;;;;;;5054452;28;20067;-39
2023/01/21 08:54:47;;;;;;;4.90;2.55;;;;;;;;;;5063158;28;20021;-40
2023/01/21 08:57:13;;;;;;;7.00;2.22;;;;;;;;;;5059302;28;20040;-39
2023/01/21 08:59:39;;;;;;;2.53;1.70;;;;;;;;;;5068416;28;20768;-40
2023/01/21 09:02:05;;;;;;;4.00;2.10;;;;;;;;;;5062040;28;20043;-40
2023/01/21 09:04:31;;;;;;;2.80;2.10;;;;;;;;;;5052612;28;20090;-40
2023/01/21 09:06:57;;;;;;;5.47;2.20;;;;;;;;;;5039491;28;20448;-40
2023/01/21 09:09:23;;;;;;;4.57;2.00;;;;;;;;;;5044195;28;20577;-39
2023/01/21 09:11:51;;;;;;;4.53;2.30;;;;;;;;;;5040846;28;20116;-40
2023/01/21 09:14:17;;;;;;;3.13;2.08;;;;;;;;;;5048958;28;20029;-42
2023/01/21 09:16:43;;;;;;;3.92;2.10;;;;;;;;;;5048144;28;20033;-42
2023/01/21 09:19:09;;;;;;;2.30;2.05;;;;;;;;;;5050171;28;20018;-40
2023/01/21 09:21:36;;;;;;;2.72;1.85;;;;;;;;;;5037994;28;20504;-42
2023/01/21 09:24:02;;;;;;;4.45;2.10;;;;;;;;;;5055437;28;20457;-42
2023/01/21 09:26:28;;;;;;;2.90;2.20;;;;;;;;;;5040367;28;20361;-42
2023/01/21 09:28:55;;;;;;;4.05;2.42;;;;;;;;;;5050420;28;20100;-39
2023/01/21 09:31:22;;;;;;;4.20;2.35;;;;;;;;;;5045638;28;20045;-42
2023/01/21 09:33:49;;;;;;;2.80;1.90;;;;;;;;;;5051444;28;20044;-42
2023/01/21 09:36:19;;;;;;;6.68;1.90;;;;;;;;;;5043270;28;20017;-41
2023/01/21 09:38:46;;;;;;;2.83;2.10;;;;;;;;;;5051042;28;20037;-40
2023/01/21 09:41:15;;;;;;;3.28;2.13;;;;;;;;;;5042705;28;20420;-41
2023/01/21 09:43:44;;;;;;;3.70;2.63;;;;;;;;;;5043182;28;20260;-42
2023/01/21 09:46:14;;;;;;;2.72;2.20;;;;;;;;;;5042070;28;20033;-42
2023/01/21 09:48:43;;;;;;;3.65;2.28;;;;;;;;;;5048573;28;20090;-41
2023/01/21 09:51:14;;;;;;;3.55;2.25;;;;;;;;;;5041120;28;20036;-41
2023/01/21 09:53:52;;;;;;;3.72;2.40;;;;;;;;;;5050143;28;20090;-41
2023/01/21 09:56:42;;;;;;;2.92;2.00;;;;;;;;;;5045573;28;20033;-41
2023/01/21 09:59:18;;;;;;;3.55;2.10;;;;;;;;;;5050095;28;20044;-40
2023/01/21 10:01:44;;;;;;;4.30;2.05;;;;;;;;;;5045376;28;20720;-40
2023/01/21 10:04:29;;;;;;;2.45;1.90;;;;;;;;;;5057234;28;20046;-39
2023/01/21 10:07:07;;;;;;;3.38;2.13;;;;;;;;;;5047129;28;20053;-40
2023/01/21 10:09:41;;;;;;;6.22;1.67;;;;;;;;;;5048388;28;20381;-39
2023/01/21 10:12:07;;;;;;;2.10;1.88;;;;;;;;;;5046078;28;20044;-40
2023/01/21 10:14:46;;;;;;;3.03;2.20;;;;;;;;;;5052833;28;20033;-39
2023/01/21 10:17:18;;;;;;;3.03;1.90;;;;;;;;;;5048388;28;20049;-40
2023/01/21 10:19:52;;;;;;;5.72;2.30;;;;;;;;;;5049327;28;20673;-40
2023/01/21 10:22:21;;;;;;;3.33;2.17;;;;;;;;;;5044561;28;20028;-40
2023/01/21 10:24:49;;;;;;;3.55;1.90;;;;;;;;;;5049918;28;20032;-40
2023/01/21 10:27:16;;;;;;;5.72;2.40;;;;;;;;;;5045127;28;20108;-40
2023/01/21 10:29:42;;;;;;;4.28;1.80;;;;;;;;;;5046214;28;20029;-40
2023/01/21 10:32:12;;;;;;;4.35;2.60;;;;;;;;;;5041719;28;20021;-40
2023/01/21 10:34:41;;;;;;;2.85;2.28;;;;;;;;;;5049064;28;20067;-40
2023/01/21 10:37:17;;;;;;;3.15;2.10;;;;;;;;;;5050296;28;20398;-40
2023/01/21 10:39:58;;;;;;;3.60;1.95;;;;;;;;;;5042951;28;20030;-40
2023/01/21 10:42:36;;;;;;;2.17;1.70;;;;;;;;;;5048571;28;20028;-40
2023/01/21 10:45:21;;;;;;;4.13;2.00;;;;;;;;;;5052321;28;20029;-39
2023/01/21 10:47:50;;;;;;;5.13;2.92;;;;;;;;;;5043970;28;20112;-40
2023/01/21 10:50:25;;;;;;;3.88;1.73;;;;;;;;;;5045250;28;20020;-40
2023/01/21 10:52:55;;;;;;;2.80;1.70;;;;;;;;;;5041748;28;20020;-40
2023/01/21 10:55:24;;;;;;;2.63;2.28;;;;;;;;;;5052444;28;20108;-40
2023/01/21 10:57:54;;;;;;;3.10;1.88;;;;;;;;;;5041416;28;20433;-40
2023/01/21 11:00:28;;;;;;;4.82;1.67;;;;;;;;;;5052797;28;20096;-40
2023/01/21 11:02:57;;;;;;;4.32;2.10;;;;;;;;;;5053116;28;20042;-40
2023/01/21 11:05:24;;;;;;;4.32;1.92;;;;;;;;;;5063310;28;20053;-40
2023/01/21 11:07:50;;;;;;;4.00;1.88;;;;;;;;;;5066710;28;20028;-39
2023/01/21 11:10:19;;;;;;;4.32;2.10;;;;;;;;;;5066115;28;20053;-41
2023/01/21 11:12:45;;;;;;;4.45;1.90;;;;;;;;;;5070900;28;20039;-39
2023/01/21 11:15:14;;;;;;;4.90;2.08;;;;;;;;;;5069237;28;20028;-39
2023/01/21 11:17:41;;;;;;;4.80;2.25;;;;;;;;;;5068420;28;20032;-41
2023/01/21 11:20:22;;;;;;;4.45;2.35;;;;;;;;;;5067721;28;20394;-41
2023/01/21 11:22:48;;;;;;;2.90;1.83;;;;;;;;;;5065886;28;20029;-41
2023/01/21 11:25:37;;;;;;;3.85;3.03;;;;;;;;;;5069917;28;20047;-41
2023/01/21 11:28:04;;;;;;;3.67;2.50;;;;;;;;;;5054332;28;20544;-40
2023/01/21 11:30:34;;;;;;;2.85;1.98;;;;;;;;;;5069678;28;20027;-43
2023/01/21 11:33:20;;;;;;;3.47;2.30;;;;;;;;;;5072578;28;20043;-42
2023/01/21 11:35:46;;;;;;;3.45;2.10;;;;;;;;;;5061983;28;20508;-40
2023/01/21 11:38:25;;;;;;;4.97;2.00;;;;;;;;;;5066220;28;20040;-39
2023/01/21 11:41:06;;;;;;;4.25;1.90;;;;;;;;;;5066700;28;20031;-39
2023/01/21 11:43:34;;;;;;;3.37;2.07;;;;;;;;;;5059956;28;20074;-39
2023/01/21 11:46:00;;;;;;;3.88;1.98;;;;;;;;;;5063807;28;20113;-39
2023/01/21 11:48:26;;;;;;;4.22;1.80;;;;;;;;;;5069968;28;20027;-41
2023/01/21 11:51:05;;;;;;;5.57;2.03;;;;;;;;;;5068273;28;20037;-41
2023/01/21 11:53:31;;;;;;;6.50;2.50;;;;;;;;;;5069708;28;20027;-41
2023/01/21 11:55:58;;;;;;;6.40;1.80;;;;;;;;;;5067313;28;20396;-38
2023/01/21 11:58:28;;;;;;;2.75;1.70;;;;;;;;;;5061118;28;20024;-41
2023/01/21 12:00:55;;;;;;;2.67;1.70;;;;;;;;;;5051802;28;20491;-40
2023/01/21 12:03:24;;;;;;;3.80;1.40;;;;;;;;;;5062577;28;20029;-41
2023/01/21 12:05:51;;;;;;;2.72;1.80;;;;;;;;;;5063723;28;20044;-40
2023/01/21 12:08:37;;;;;;;4.10;2.17;;;;;;;;;;5065237;28;20473;-40
2023/01/21 12:11:04;;;;;;;5.47;1.85;;;;;;;;;;5064426;28;20031;-40
2023/01/21 12:13:49;;;;;;;5.93;2.63;;;;;;;;;;5066421;28;20032;-40
2023/01/21 12:16:23;;;;;;;4.57;1.73;;;;;;;;;;5059697;28;20059;-40
2023/01/21 12:19:05;;;;;;;3.53;1.88;;;;;;;;;;5062983;28;20028;-39
2023/01/21 12:21:50;;;;;;;3.42;2.08;;;;;;;;;;5063071;28;20051;-40
2023/01/21 12:24:16;;;;;;;5.25;2.20;;;;;;;;;;5069167;28;20051;-40
2023/01/21 12:26:47;;;;;;;5.40;2.90;;;;;;;;;;5068778;28;20524;-40
2023/01/21 12:29:25;;;;;;;4.70;2.88;;;;;;;;;;5067308;28;20505;-40
2023/01/21 12:31:55;;;;;;;5.68;3.10;;;;;;;;;;5055055;28;20033;-40
2023/01/21 12:34:21;;;;;;;5.20;2.85;;;;;;;;;;5067662;28;20123;-40
2023/01/21 12:36:52;;;;;;;5.75;2.92;;;;;;;;;;5064598;28;20107;-39
2023/01/21 12:39:20;;;;;;;5.60;2.70;;;;;;;;;;5058281;28;20012;-40
2023/01/21 12:41:50;;;;;;;5.35;3.28;;;;;;;;;;5058296;28;20082;-40
2023/01/21 12:44:25;;;;;;;5.22;3.15;;;;;;;;;;5058147;28;20024;-41
2023/01/21 12:46:54;;;;;;;4.10;2.58;;;;;;;;;;5064882;28;20056;-40
2023/01/21 12:49:29;;;;;;;5.53;3.03;;;;;;;;;;5061476;28;20107;-40
2023/01/21 12:52:08;;;;;;;4.18;2.70;;;;;;;;;;5058016;28;20426;-40
2023/01/21 12:54:47;;;;;;;4.47;2.92;;;;;;;;;;5068779;28;20109;-41
2023/01/21 12:57:19;;;;;;;5.40;3.40;;;;;;;;;;5052960;28;20045;-41
2023/01/21 12:59:58;;;;;;;7.55;2.80;;;;;;;;;;5052995;28;20103;-40
2023/01/21 13:02:35;;;;;;;4.78;2.83;;;;;;;;;;5057144;28;20055;-41
2023/01/21 13:05:03;;;;;;;5.15;3.13;;;;;;;;;;5062449;28;20129;-41
2023/01/21 13:07:44;;;;;;;5.07;2.63;;;;;;;;;;5056663;28;20036;-41
2023/01/21 13:10:43;;;;;;;9.30;2.97;;;;;;;;;;5064102;28;20029;-41
2023/01/21 13:13:12;;;;;;;4.90;2.60;;;;;;;;;;5013978;28;20045;-41
2023/01/21 13:15:40;;;;;;;4.80;2.50;;;;;;;;;;5065894;28;20090;-41
2023/01/21 13:18:12;;;;;;;4.35;2.33;;;;;;;;;;5068957;28;20070;-40
2023/01/21 13:20:39;;;;;;;;;;;;;;;;;;5053489;28;20040;-41
2023/01/21 13:23:43;;;;;;;3.85;2.13;;;;;;;;;;5059747;28;19908;-41
2023/01/21 13:26:16;;;;;;;9.32;2.50;;;;;;;;;;5001730;28;20038;-41
2023/01/21 13:28:46;;;;;;;5.55;2.58;;;;;;;;;;4999812;28;20565;-42
2023/01/21 13:31:35;;;;;;;3.55;2.50;;;;;;;;;;5006182;28;20586;-41
2023/01/21 13:34:12;;;;;;;3.53;1.98;;;;;;;;;;4997258;28;20076;-40
2023/01/21 13:36:57;;;;;;;3.92;2.00;;;;;;;;;;5003255;28;20045;-41
2023/01/21 13:39:25;;;;;;;3.10;1.98;;;;;;;;;;5007907;28;20038;-41
2023/01/21 13:42:06;;;;;;;3.67;2.17;;;;;;;;;;4999096;28;20434;-40
2023/01/21 13:44:43;;;;;;;4.15;2.83;;;;;;;;;;4999208;28;20460;-40
2023/01/21 13:47:31;;;;;;;5.43;2.60;;;;;;;;;;5007697;28;20108;-41
2023/01/21 13:50:04;;;;;;;3.80;2.05;;;;;;;;;;5007806;28;20050;-41
2023/01/21 13:52:33;;;;;;;3.80;2.05;;;;;;;;;;4994088;28;20198;-40
2023/01/21 13:55:09;;;;;;;2.95;1.98;;;;;;;;;;5000884;28;20069;-40
2023/01/21 13:57:38;;;;;;;3.45;2.20;;;;;;;;;;5053941;28;20547;-40
2023/01/21 14:00:20;;;;;;;2.60;2.08;;;;;;;;;;5057673;28;20036;-39
2023/01/21 14:02:56;;;;;;;4.85;2.63;;;;;;;;;;5066561;28;20024;-38
2023/01/21 14:05:29;;;;;;;3.72;1.70;;;;;;;;;;5068866;28;20044;-39
2023/01/21 14:08:05;;;;;;;3.72;1.92;;;;;;;;;;5070151;28;20591;-38
2023/01/21 14:10:33;;;;;;;3.45;1.90;;;;;;;;;;5050472;28;20082;-40
2023/01/21 14:13:07;;;;;;;5.05;2.03;;;;;;;;;;5057665;28;20469;-40
2023/01/21 14:15:52;;;;;;;2.83;2.03;;;;;;;;;;5062474;28;20036;-40
2023/01/21 14:18:37;;;;;;;3.42;1.90;;;;;;;;;;5070366;28;20029;-40
2023/01/21 14:21:14;;;;;;;3.50;1.48;;;;;;;;;;5060093;28;20086;-40
2023/01/21 14:23:49;;;;;;;3.90;1.80;;;;;;;;;;5055295;28;20136;-40
2023/01/21 14:26:15;;;;;;;5.68;1.88;;;;;;;;;;5066344;28;20040;-40
2023/01/21 14:28:41;;;;;;;4.43;2.45;;;;;;;;;;5062691;28;20021;-40
2023/01/21 14:31:12;;;;;;;3.35;2.25;;;;;;;;;;5063603;28;20036;-40
2023/01/21 14:33:43;;;;;;;2.90;2.20;;;;;;;;;;5066469;28;20060;-40
2023/01/21 14:36:21;;;;;;;4.77;2.00;;;;;;;;;;5068256;28;20021;-40
2023/01/21 14:38:52;;;;;;;3.15;2.25;;;;;;;;;;5069006;28;20131;-43
2023/01/21 14:41:18;;;;;;;2.55;2.28;;;;;;;;;;5064395;28;20082;-42
2023/01/21 14:43:45;;;;;;;5.35;2.13;;;;;;;;;;5064289;28;20423;-42
2023/01/21 14:46:26;;;;;;;2.78;2.08;;;;;;;;;;5068978;28;20064;-43
2023/01/21 14:48:59;;;;;;;3.25;2.30;;;;;;;;;;5070428;28;20378;-42
2023/01/21 14:51:26;;;;;;;2.83;1.90;;;;;;;;;;5060212;28;20025;-42
2023/01/21 14:53:57;;;;;;;3.03;1.75;;;;;;;;;;5072918;28;20380;-43
2023/01/21 14:56:28;;;;;;;6.45;2.38;;;;;;;;;;5072898;28;20108;-42
2023/01/21 14:58:56;;;;;;;3.58;1.95;;;;;;;;;;5071199;28;20481;-43
2023/01/21 15:01:38;;;;;;;5.28;2.40;;;;;;;;;;5071795;28;20028;-42